createdAt,value
2023-04-26T00:02:46.711Z,3.55
2023-04-26T00:05:51.134Z,3.93
2023-04-26T00:08:55.219Z,3.67
2023-04-26T00:12:00.226Z,4.07
2023-04-26T00:15:06.585Z,3.45
2023-04-26T00:18:09.944Z,3.67
2023-04-26T00:21:13.441Z,3.97
2023-04-26T00:24:17.245Z,3.65
2023-04-26T00:27:21.112Z,4.70
2023-04-26T00:30:24.837Z,3.95
2023-04-26T00:33:28.531Z,3.77
2023-04-26T00:36:32.833Z,4.20
2023-04-26T00:39:36.435Z,3.97
2023-04-26T00:42:40.671Z,3.95
2023-04-26T00:45:44.097Z,4.43
2023-04-26T00:48:48.008Z,4.00
2023-04-26T00:51:52.732Z,4.05
2023-04-26T00:54:57.046Z,4.47
2023-04-26T00:58:00.095Z,4.32
2023-04-26T01:01:04.786Z,4.50
2023-04-26T01:04:08.633Z,4.40
2023-04-26T01:07:12.533Z,4.95
2023-04-26T01:10:15.556Z,3.80
2023-04-26T01:13:19.133Z,4.10
2023-04-26T01:16:24.125Z,4.55
2023-04-26T01:19:27.602Z,4.62
2023-04-26T01:22:34.367Z,4.62
2023-04-26T01:25:38.069Z,4.70
2023-04-26T01:28:41.400Z,4.47
2023-04-26T01:31:46.002Z,4.90
2023-04-26T01:34:49.116Z,4.43
2023-04-26T01:37:54.872Z,4.60
2023-04-26T01:40:58.196Z,4.53
2023-04-26T01:44:01.884Z,4.47
2023-04-26T01:47:05.283Z,5.10
2023-04-26T01:50:09.488Z,4.80
2023-04-26T01:53:13.921Z,4.75
2023-04-26T01:56:18.524Z,4.43
2023-04-26T01:59:21.841Z,4.47
2023-04-26T02:02:26.598Z,4.37
2023-04-26T02:05:30.316Z,3.92
2023-04-26T02:08:34.297Z,4.68
2023-04-26T02:11:37.744Z,4.00
2023-04-26T02:14:41.142Z,3.73
2023-04-26T02:17:47.056Z,4.30
2023-04-26T02:20:51.527Z,4.82
2023-04-26T02:23:55.842Z,4.05
2023-04-26T02:27:03.952Z,4.03
2023-04-26T02:30:08.213Z,4.18
2023-04-26T02:33:11.822Z,3.85
2023-04-26T02:36:15.456Z,4.03
2023-04-26T02:39:19.491Z,3.73
2023-04-26T02:42:23.038Z,4.15
2023-04-26T02:45:26.229Z,3.90
2023-04-26T02:48:29.887Z,4.05
2023-04-26T02:51:33.693Z,4.00
2023-04-26T02:54:37.262Z,4.18
2023-04-26T02:57:40.504Z,3.78
2023-04-26T03:00:50.237Z,3.53
2023-04-26T03:03:53.411Z,3.93
2023-04-26T03:06:56.996Z,3.62
2023-04-26T03:10:00.808Z,4.12
2023-04-26T03:13:05.583Z,3.83
2023-04-26T03:16:08.886Z,4.03
2023-04-26T03:19:12.505Z,4.18
2023-04-26T03:22:16.594Z,3.28
2023-04-26T03:25:20.630Z,3.55
2023-04-26T03:28:23.901Z,3.60
2023-04-26T03:31:27.602Z,3.40
2023-04-26T03:34:31.027Z,3.72
2023-04-26T03:37:34.379Z,3.55
2023-04-26T03:40:38.149Z,3.50
2023-04-26T03:43:41.637Z,3.78
2023-04-26T03:46:44.732Z,3.75
2023-04-26T03:49:48.114Z,3.60
2023-04-26T03:52:51.376Z,3.30
2023-04-26T03:55:54.841Z,3.12
2023-04-26T03:58:58.766Z,3.42
2023-04-26T04:02:03.872Z,3.45
2023-04-26T04:05:09.669Z,3.67
2023-04-26T04:08:12.804Z,3.50
2023-04-26T04:11:17.367Z,3.65
2023-04-26T04:14:20.504Z,3.50
2023-04-26T04:17:24.018Z,3.20
2023-04-26T04:20:27.963Z,3.08
2023-04-26T04:23:32.192Z,3.22
2023-04-26T04:26:35.620Z,2.90
2023-04-26T04:29:39.093Z,3.42
2023-04-26T04:32:46.886Z,2.90
2023-04-26T04:35:50.638Z,3.33
2023-04-26T04:38:54.154Z,4.03
2023-04-26T04:41:58.885Z,3.20
2023-04-26T04:45:02.516Z,2.87
2023-04-26T04:48:06.317Z,3.43
2023-04-26T04:51:09.765Z,2.72
2023-04-26T04:54:15.259Z,3.30
2023-04-26T04:57:18.981Z,2.33
2023-04-26T05:00:23.171Z,2.67
2023-04-26T05:03:27.049Z,2.92
2023-04-26T05:06:34.641Z,2.87
2023-04-26T05:09:38.355Z,2.67
2023-04-26T05:12:43.097Z,3.00
2023-04-26T05:15:46.351Z,3.22
2023-04-26T05:18:50.312Z,2.78
2023-04-26T05:21:53.730Z,2.72
2023-04-26T05:24:57.421Z,2.67
2023-04-26T05:28:01.064Z,2.53
2023-04-26T05:31:05.472Z,3.00
2023-04-26T05:34:09.124Z,2.75
2023-04-26T05:37:12.603Z,2.47
2023-04-26T05:40:16.774Z,2.30
2023-04-26T05:43:21.527Z,2.60
2023-04-26T05:46:24.768Z,2.47
2023-04-26T05:49:28.323Z,2.15
2023-04-26T05:52:31.514Z,2.75
2023-04-26T05:55:34.865Z,2.12
2023-04-26T05:58:38.649Z,2.67
2023-04-26T06:01:42.382Z,3.30
2023-04-26T06:04:47.470Z,2.50
2023-04-26T06:07:52.982Z,2.20
2023-04-26T06:10:56.633Z,2.80
2023-04-26T06:14:00.338Z,2.83
2023-04-26T06:17:03.825Z,2.20
2023-04-26T06:20:08.032Z,2.75
2023-04-26T06:23:11.688Z,2.28
2023-04-26T06:26:14.839Z,2.62
2023-04-26T06:29:18.675Z,2.50
2023-04-26T06:32:22.504Z,2.20
2023-04-26T06:35:26.219Z,2.40
2023-04-26T06:38:29.594Z,3.17
2023-04-26T06:41:35.954Z,2.47
2023-04-26T06:44:39.310Z,2.30
2023-04-26T06:47:42.771Z,3.73
2023-04-26T06:50:46.581Z,2.55
2023-04-26T06:53:53.253Z,1.90
2023-04-26T06:57:01.393Z,2.12
2023-04-26T07:00:06.113Z,1.97
2023-04-26T07:03:09.929Z,2.10
2023-04-26T07:06:13.500Z,2.20
2023-04-26T07:09:16.867Z,1.85
2023-04-26T07:12:21.260Z,2.05
2023-04-26T07:15:25.689Z,2.10
2023-04-26T07:18:29.419Z,2.43
2023-04-26T07:21:33.016Z,2.10
2023-04-26T07:24:36.439Z,1.98
2023-04-26T07:27:39.438Z,2.20
2023-04-26T07:30:43.664Z,1.80
2023-04-26T07:33:47.023Z,2.30
2023-04-26T07:36:50.564Z,2.03
2023-04-26T07:39:53.720Z,2.62
2023-04-26T07:42:57.401Z,2.53
2023-04-26T07:46:02.230Z,1.80
2023-04-26T07:49:06.118Z,2.07
2023-04-26T07:52:09.766Z,2.10
2023-04-26T07:55:14.121Z,2.08
2023-04-26T07:58:19.414Z,2.20
2023-04-26T08:01:23.008Z,1.90
2023-04-26T08:04:34.700Z,2.20
2023-04-26T08:07:37.945Z,2.40
2023-04-26T08:10:42.854Z,2.17
2023-04-26T08:13:46.498Z,1.80
2023-04-26T08:16:50.046Z,2.07
2023-04-26T08:19:53.737Z,2.10
2023-04-26T08:22:58.953Z,1.83
2023-04-26T08:26:02.467Z,2.05
2023-04-26T08:29:06.728Z,1.80
2023-04-26T08:32:09.860Z,2.17
2023-04-26T08:35:13.711Z,2.20
2023-04-26T08:38:16.931Z,1.80
2023-04-26T08:41:23.968Z,1.90
2023-04-26T08:44:29.345Z,2.10
2023-04-26T08:47:41.949Z,2.37
2023-04-26T08:50:49.425Z,1.90
2023-04-26T08:53:55.168Z,1.95
2023-04-26T08:57:02.309Z,1.70
2023-04-26T09:00:12.612Z,1.92
2023-04-26T09:03:16.407Z,1.80
2023-04-26T09:06:20.856Z,1.67
2023-04-26T09:09:28.432Z,1.67
2023-04-26T09:12:32.978Z,1.60
2023-04-26T09:15:36.161Z,1.70
2023-04-26T09:18:52.067Z,2.13
2023-04-26T09:21:56.252Z,2.93
2023-04-26T09:25:00.690Z,1.95
2023-04-26T09:28:04.776Z,2.10
2023-04-26T09:31:08.304Z,2.25
2023-04-26T09:34:15.615Z,2.57
2023-04-26T09:37:19.050Z,1.80
2023-04-26T09:40:24.761Z,1.73
2023-04-26T09:43:28.239Z,1.92
2023-04-26T09:46:31.428Z,2.10
2023-04-26T09:49:52.060Z,2.10
2023-04-26T09:52:56.229Z,2.37
2023-04-26T09:56:20.015Z,1.60
2023-04-26T09:59:24.259Z,1.60
2023-04-26T10:02:30.538Z,1.60
2023-04-26T10:05:35.696Z,1.93
2023-04-26T10:08:39.281Z,1.90
2023-04-26T10:11:43.286Z,1.85
2023-04-26T10:14:47.322Z,2.05
2023-04-26T10:17:52.574Z,1.95
2023-04-26T10:21:00.936Z,1.90
2023-04-26T10:24:06.085Z,2.30
2023-04-26T10:27:09.267Z,1.83
2023-04-26T10:30:15.680Z,1.92
2023-04-26T10:33:19.286Z,1.73
2023-04-26T10:36:22.994Z,1.93
2023-04-26T10:39:28.298Z,1.73
2023-04-26T10:42:32.453Z,1.70
2023-04-26T10:45:36.427Z,1.50
2023-04-26T10:48:40.095Z,1.70
2023-04-26T10:52:12.647Z,1.50
2023-04-26T10:55:43.011Z,1.50
2023-04-26T10:58:47.004Z,1.25
2023-04-26T11:01:52.874Z,1.30
2023-04-26T11:04:56.157Z,1.70
2023-04-26T11:08:15.547Z,1.57
2023-04-26T11:11:22.379Z,1.50
2023-04-26T11:14:26.826Z,1.50
2023-04-26T11:17:37.806Z,1.33
2023-04-26T11:20:41.270Z,1.58
2023-04-26T11:23:53.707Z,1.73
2023-04-26T11:26:58.433Z,1.30
2023-04-26T11:30:05.689Z,1.30
2023-04-26T11:33:18.454Z,1.27
2023-04-26T11:36:22.796Z,1.50
2023-04-26T11:39:27.326Z,1.83
2023-04-26T11:42:31.735Z,1.20
2023-04-26T11:45:37.433Z,1.40
2023-04-26T11:48:42.930Z,1.70
2023-04-26T11:51:49.849Z,1.45
2023-04-26T11:55:04.528Z,1.60
2023-04-26T11:58:15.528Z,1.50
2023-04-26T12:01:27.911Z,1.80
2023-04-26T12:04:31.919Z,1.20
2023-04-26T12:07:39.135Z,1.50
2023-04-26T12:10:42.668Z,1.30
2023-04-26T12:13:46.710Z,1.50
2023-04-26T12:16:50.234Z,1.58
2023-04-26T12:19:53.407Z,1.95
2023-04-26T12:23:00.118Z,1.77
2023-04-26T12:26:04.073Z,1.50
2023-04-26T12:29:07.540Z,1.70
2023-04-26T12:32:10.870Z,1.33
2023-04-26T12:35:14.505Z,1.58
2023-04-26T12:41:23.233Z,1.43
2023-04-26T12:44:26.476Z,1.30
2023-04-26T12:47:32.096Z,1.30
2023-04-26T12:50:36.059Z,1.40
2023-04-26T12:53:39.576Z,1.70
2023-04-26T12:56:44.629Z,4.50
2023-04-26T12:59:48.854Z,1.30
2023-04-26T13:02:52.246Z,1.50
2023-04-26T13:05:56.225Z,1.23
2023-04-26T13:08:59.457Z,1.33
2023-04-26T13:12:03.214Z,1.33
2023-04-26T13:15:08.144Z,1.30
2023-04-26T13:18:12.357Z,1.55
2023-04-26T13:21:16.682Z,3.00
2023-04-26T13:24:20.736Z,1.40
2023-04-26T13:27:23.847Z,1.33
2023-04-26T13:30:27.343Z,1.50
2023-04-26T13:33:30.580Z,1.60
2023-04-26T13:36:34.543Z,1.55
2023-04-26T13:39:37.762Z,2.25
2023-04-26T13:42:41.710Z,1.80
2023-04-26T13:45:46.226Z,1.60
2023-04-26T13:48:49.581Z,1.30
2023-04-26T13:51:54.368Z,1.55
2023-04-26T13:54:58.807Z,1.60
2023-04-26T13:58:01.929Z,1.50
2023-04-26T14:01:05.380Z,1.77
2023-04-26T14:04:09.268Z,2.10
2023-04-26T14:07:12.830Z,1.60
2023-04-26T14:10:16.252Z,1.62
2023-04-26T14:13:19.628Z,2.00
2023-04-26T14:16:26.976Z,2.03
2023-04-26T14:19:30.096Z,1.65
2023-04-26T14:22:33.533Z,1.70
2023-04-26T14:25:36.872Z,1.75
2023-04-26T14:28:41.428Z,1.23
2023-04-26T14:31:45.253Z,1.83
2023-04-26T14:34:48.816Z,1.90
2023-04-26T14:37:51.969Z,1.83
2023-04-26T14:40:56.895Z,1.70
2023-04-26T14:43:59.951Z,1.50
2023-04-26T14:47:03.985Z,2.07
2023-04-26T14:50:09.824Z,1.70
2023-04-26T14:53:14.153Z,1.60
2023-04-26T14:56:17.486Z,1.87
2023-04-26T14:59:21.274Z,1.50
2023-04-26T15:02:24.785Z,1.50
2023-04-26T15:05:28.403Z,1.12
2023-04-26T15:08:31.720Z,1.33
2023-04-26T15:11:35.211Z,1.40
2023-04-26T15:14:38.371Z,1.30
2023-04-26T15:17:41.903Z,1.98
2023-04-26T15:20:45.120Z,1.50
2023-04-26T15:23:56.536Z,1.37
2023-04-26T15:26:59.605Z,1.20
2023-04-26T15:30:06.427Z,1.20
2023-04-26T15:33:12.771Z,1.40
2023-04-26T15:36:20.607Z,1.05
2023-04-26T15:39:23.694Z,1.35
2023-04-26T15:42:27.147Z,1.30
2023-04-26T15:45:30.503Z,1.60
2023-04-26T15:48:33.888Z,1.50
2023-04-26T15:51:36.942Z,1.37
2023-04-26T15:54:40.993Z,1.73
2023-04-26T15:57:44.040Z,1.62
2023-04-26T16:00:48.670Z,1.70
2023-04-26T16:03:53.596Z,1.43
2023-04-26T16:06:57.072Z,1.40
2023-04-26T16:10:00.722Z,1.40
2023-04-26T16:13:03.960Z,1.60
2023-04-26T16:16:09.140Z,1.40
2023-04-26T16:19:12.342Z,1.90
2023-04-26T16:22:15.948Z,1.50
2023-04-26T16:25:19.000Z,1.40
2023-04-26T16:28:22.661Z,1.87
2023-04-26T16:31:26.497Z,1.90
2023-04-26T16:34:30.089Z,1.50
2023-04-26T16:37:33.312Z,1.70
2023-04-26T16:40:36.856Z,1.60
2023-04-26T16:43:40.158Z,1.35
2023-04-26T16:46:43.606Z,1.60
2023-04-26T16:49:47.305Z,1.40
2023-04-26T16:52:50.779Z,2.55
2023-04-26T16:55:54.023Z,2.35
2023-04-26T16:58:57.690Z,2.00
2023-04-26T17:02:00.947Z,1.80
2023-04-26T17:05:05.347Z,2.72
2023-04-26T17:08:09.205Z,3.80
2023-04-26T17:11:16.345Z,2.65
2023-04-26T17:14:19.832Z,2.30
2023-04-26T17:17:23.794Z,2.83
2023-04-26T17:20:28.141Z,3.10
2023-04-26T17:23:33.169Z,3.22
2023-04-26T17:26:36.768Z,2.42
2023-04-26T17:29:40.716Z,2.53
2023-04-26T17:32:44.282Z,2.10
2023-04-26T17:35:47.976Z,2.33
2023-04-26T17:38:51.418Z,2.00
2023-04-26T17:41:56.287Z,1.77
2023-04-26T17:45:01.912Z,2.05
2023-04-26T17:48:11.537Z,1.67
2023-04-26T17:51:15.319Z,1.65
2023-04-26T17:54:18.963Z,2.00
2023-04-26T17:57:24.529Z,1.90
2023-04-26T18:00:29.688Z,2.03
2023-04-26T18:03:36.148Z,2.37
2023-04-26T18:06:41.133Z,2.40
2023-04-26T18:09:46.340Z,3.10
2023-04-26T18:12:52.914Z,2.60
2023-04-26T18:15:57.621Z,2.60
2023-04-26T18:19:00.934Z,2.42
2023-04-26T18:22:07.243Z,2.90
2023-04-26T18:25:11.212Z,1.98
2023-04-26T18:28:18.181Z,2.67
2023-04-26T18:31:24.361Z,3.55
2023-04-26T18:34:28.369Z,5.20
2023-04-26T18:37:33.288Z,5.72
2023-04-26T18:40:37.080Z,4.75
2023-04-26T18:43:41.139Z,5.25
2023-04-26T18:46:45.305Z,5.47
2023-04-26T18:49:48.873Z,4.73
2023-04-26T18:52:53.121Z,3.80
2023-04-26T18:55:56.800Z,4.40
2023-04-26T18:59:01.982Z,3.72
2023-04-26T19:02:06.363Z,3.28
2023-04-26T19:05:12.217Z,3.00
2023-04-26T19:08:18.971Z,2.97
2023-04-26T19:11:23.680Z,3.13
2023-04-26T19:14:27.470Z,3.12
2023-04-26T19:17:33.825Z,3.65
2023-04-26T19:20:39.890Z,4.30
2023-04-26T19:23:46.115Z,4.43
2023-04-26T19:26:55.214Z,4.20
2023-04-26T19:29:59.613Z,4.00
2023-04-26T19:33:05.458Z,2.80
2023-04-26T19:36:11.315Z,2.70
2023-04-26T19:39:17.083Z,2.28
2023-04-26T19:42:21.903Z,2.80
2023-04-26T19:45:26.027Z,2.45
2023-04-26T19:48:30.124Z,2.30
2023-04-26T19:51:34.350Z,2.33
2023-04-26T19:54:38.972Z,2.10
2023-04-26T19:57:43.186Z,2.33
2023-04-26T20:00:48.588Z,2.08
2023-04-26T20:03:53.486Z,2.45
2023-04-26T20:06:58.134Z,2.50
2023-04-26T20:10:03.525Z,2.50
2023-04-26T20:13:07.724Z,3.00
2023-04-26T20:16:14.232Z,2.58
2023-04-26T20:19:19.126Z,2.70
2023-04-26T20:22:25.430Z,2.40
2023-04-26T20:25:30.146Z,2.03
2023-04-26T20:28:40.540Z,2.30
2023-04-26T20:31:44.715Z,2.60
2023-04-26T20:34:48.557Z,2.78
2023-04-26T20:37:52.527Z,3.00
2023-04-26T20:40:56.416Z,2.53
2023-04-26T20:43:59.801Z,2.83
2023-04-26T20:47:03.834Z,3.30
2023-04-26T20:50:08.467Z,2.87
2023-04-26T20:53:11.988Z,3.70
2023-04-26T20:56:14.978Z,3.50
2023-04-26T20:59:18.850Z,5.35
2023-04-26T21:02:25.151Z,4.70
2023-04-26T21:05:29.062Z,5.43
2023-04-26T21:08:32.615Z,6.82
2023-04-26T21:11:37.157Z,5.32
2023-04-26T21:14:40.483Z,3.93
2023-04-26T21:17:44.064Z,4.50
2023-04-26T21:20:47.451Z,3.85
2023-04-26T21:23:51.076Z,4.30
2023-04-26T21:26:54.231Z,5.25
2023-04-26T21:29:57.767Z,5.03
2023-04-26T21:33:00.905Z,4.70
2023-04-26T21:36:04.758Z,4.65
2023-04-26T21:39:08.423Z,4.45
2023-04-26T21:42:13.258Z,4.28
2023-04-26T21:45:16.677Z,4.40
2023-04-26T21:48:20.645Z,4.65
2023-04-26T21:51:23.704Z,4.25
2023-04-26T21:54:27.026Z,4.57
2023-04-26T21:57:30.154Z,4.65
2023-04-26T22:00:34.315Z,4.37
2023-04-26T22:03:38.463Z,4.60
2023-04-26T22:06:41.994Z,4.68
2023-04-26T22:09:45.702Z,4.15
2023-04-26T22:12:49.058Z,4.35
2023-04-26T22:15:52.751Z,3.90
2023-04-26T22:18:56.110Z,3.62
2023-04-26T22:21:59.710Z,3.92
2023-04-26T22:25:02.906Z,4.17
2023-04-26T22:28:06.951Z,4.18
2023-04-26T22:31:11.870Z,4.07
2023-04-26T22:34:15.278Z,3.83
2023-04-26T22:37:21.097Z,4.12
2023-04-26T22:40:25.300Z,3.55
2023-04-26T22:43:28.468Z,3.40
2023-04-26T22:46:32.225Z,3.90
2023-04-26T22:49:35.835Z,3.40
2023-04-26T22:52:39.376Z,3.45
2023-04-26T22:55:43.112Z,3.60
2023-04-26T22:58:47.229Z,3.20
2023-04-26T23:01:50.420Z,3.25
2023-04-26T23:04:54.320Z,2.95
2023-04-26T23:07:57.653Z,2.62
2023-04-26T23:11:01.082Z,3.00
2023-04-26T23:14:06.671Z,3.15
2023-04-26T23:17:12.202Z,2.40
2023-04-26T23:20:15.928Z,2.95
2023-04-26T23:23:19.266Z,3.10
2023-04-26T23:26:22.789Z,3.70
2023-04-26T23:29:26.187Z,3.92
2023-04-26T23:32:30.104Z,4.22
2023-04-26T23:35:33.523Z,4.03
2023-04-26T23:38:36.793Z,4.03
2023-04-26T23:41:40.237Z,4.20
2023-04-26T23:44:43.679Z,3.72
2023-04-26T23:47:47.080Z,3.97
2023-04-26T23:50:50.206Z,3.95
2023-04-26T23:53:53.526Z,4.35
2023-04-26T23:56:56.936Z,4.30
